createdAt,value
2023-01-28T02:41:30.362Z,100492.57
2023-01-28T02:44:01.407Z,100492.30
2023-01-28T02:46:48.166Z,100487.48
2023-01-28T02:49:40.368Z,100489.20
2023-01-28T02:52:42.324Z,100487.99
2023-01-28T02:55:25.338Z,100488.34
2023-01-28T02:58:12.936Z,100491.27
2023-01-28T03:01:05.744Z,100490.26
2023-01-28T03:04:01.758Z,100494.60
2023-01-28T03:06:40.083Z,100493.05
2023-01-28T03:09:28.325Z,100497.70
2023-01-28T03:12:29.891Z,100498.40
2023-01-28T03:15:19.689Z,100496.50
2023-01-28T03:18:23.871Z,100493.93
2023-01-28T03:21:26.831Z,100493.26
2023-01-28T03:24:45.259Z,100488.64
2023-01-28T03:27:37.306Z,100488.83
2023-01-28T03:30:30.684Z,100488.32
2023-01-28T03:33:22.660Z,100492.27
2023-01-28T03:36:09.435Z,100492.26
2023-01-28T03:38:43.806Z,100489.30
2023-01-28T03:41:21.061Z,100485.83
2023-01-28T03:43:49.977Z,100483.23
2023-01-28T03:46:18.600Z,100486.86
2023-01-28T03:48:46.604Z,100491.84
2023-01-28T03:51:15.583Z,100489.94
2023-01-28T03:53:43.592Z,100490.60
2023-01-28T03:56:18.693Z,100494.19
2023-01-28T03:58:52.937Z,100492.95
2023-01-28T04:01:21.482Z,100494.98
2023-01-28T04:03:49.883Z,100495.48
2023-01-28T04:06:31.094Z,100500.28
2023-01-28T04:09:12.468Z,100498.03
2023-01-28T04:11:49.016Z,100501.83
2023-01-28T04:14:23.045Z,100501.84
2023-01-28T04:17:08.852Z,100505.25
2023-01-28T04:19:39.049Z,100508.64
2023-01-28T04:22:10.469Z,100509.81
2023-01-28T04:24:42.268Z,100510.48
2023-01-28T04:27:10.244Z,100510.80
2023-01-28T04:29:38.133Z,100516.66
2023-01-28T04:32:29.543Z,100516.87
2023-01-28T04:35:26.684Z,100516.60
2023-01-28T04:38:09.069Z,100511.30
2023-01-28T04:40:52.960Z,100515.98
2023-01-28T04:43:33.829Z,100519.26
2023-01-28T09:34:39.684Z,100498.48
2023-01-28T09:37:06.498Z,100496.80
2023-01-28T09:39:33.118Z,100494.63
2023-01-28T09:42:17.706Z,100486.92
2023-01-28T09:45:15.883Z,100484.59
2023-01-28T09:47:46.659Z,100474.61
2023-01-28T09:50:22.819Z,100473.58
2023-01-28T09:52:50.140Z,100473.91
2023-01-28T09:55:22.943Z,100472.00
2023-01-28T09:57:53.092Z,100473.02
2023-01-28T10:00:26.105Z,100467.64
2023-01-28T10:03:30.779Z,100466.94
2023-01-28T10:06:13.827Z,100466.44
2023-01-28T10:08:50.017Z,100470.27
2023-01-28T10:11:45.611Z,100469.42
2023-01-28T10:14:18.142Z,100474.42
2023-01-28T10:16:48.436Z,100478.23
2023-01-28T10:19:55.382Z,100474.64
2023-01-28T10:22:25.047Z,100471.95
2023-01-28T10:24:57.670Z,100467.02
2023-01-28T10:27:27.768Z,100470.84
2023-01-28T10:29:54.775Z,100468.10
2023-01-28T10:32:23.012Z,100466.02
2023-01-28T10:34:51.268Z,100465.30
2023-01-28T10:37:17.840Z,100462.14
2023-01-28T10:39:46.831Z,100466.73
2023-01-28T10:42:23.227Z,100457.34
2023-01-28T10:44:49.744Z,100454.88
2023-01-28T10:47:30.858Z,100448.48
2023-01-28T10:49:59.110Z,100440.67
2023-01-28T10:52:25.692Z,100434.73
2023-01-28T10:54:59.622Z,100430.47
2023-01-28T10:57:27.095Z,100431.20
2023-01-28T10:59:53.605Z,100430.77
2023-01-28T11:05:20.155Z,100418.05
2023-01-28T11:07:50.055Z,100414.77
2023-01-28T11:10:25.186Z,100415.11
2023-01-28T11:12:56.113Z,100408.00
2023-01-28T11:15:22.713Z,100408.82
2023-01-28T11:17:53.309Z,100409.00
2023-01-28T11:20:22.258Z,100409.63
2023-01-28T11:22:49.767Z,100408.70
2023-01-28T11:25:36.144Z,100407.10
2023-01-28T11:28:05.389Z,100400.15
2023-01-28T11:30:33.924Z,100395.78
2023-01-28T11:33:21.055Z,100396.75
2023-01-28T11:35:58.249Z,100399.51
2023-01-28T11:38:25.490Z,100397.11
2023-01-28T11:40:53.013Z,100393.59
2023-01-28T11:43:32.184Z,100394.64
2023-01-28T11:46:20.259Z,100392.42
2023-01-28T11:48:49.981Z,100391.95
2023-01-28T11:51:22.938Z,100392.88
2023-01-28T11:53:55.408Z,100395.64
2023-01-28T11:56:44.404Z,100395.19
2023-01-28T11:59:42.177Z,100389.36
2023-01-28T12:02:25.495Z,100385.91
2023-01-28T12:05:23.295Z,100381.51
2023-01-28T12:08:19.180Z,100378.09
2023-01-28T12:11:08.376Z,100372.16
2023-01-28T12:13:53.174Z,100374.23
2023-01-28T12:16:44.386Z,100372.84
2023-01-28T12:19:20.328Z,100373.78
2023-01-28T12:22:15.704Z,100373.69
2023-01-28T12:24:53.548Z,100372.11
2023-01-28T12:27:33.100Z,100369.02
2023-01-28T12:30:32.119Z,100364.72
2023-01-28T12:33:20.732Z,100358.38
2023-01-28T12:36:12.248Z,100356.73
2023-01-28T12:39:02.941Z,100364.36
2023-01-28T12:41:35.979Z,100363.46
2023-01-28T12:44:03.652Z,100361.50
2023-01-28T12:46:39.132Z,100359.20
2023-01-28T12:49:16.412Z,100356.55
2023-01-28T12:52:20.761Z,100355.48
2023-01-28T12:54:59.481Z,100358.89
2023-01-28T12:57:31.793Z,100351.77
2023-01-28T13:00:23.867Z,100350.91
2023-01-28T13:03:08.927Z,100350.61
2023-01-28T13:05:41.519Z,100352.55
2023-01-28T13:08:15.875Z,100348.63
2023-01-28T13:10:44.070Z,100345.70
2023-01-28T13:13:23.457Z,100342.79
2023-01-28T13:15:50.308Z,100344.52
2023-01-28T13:18:47.286Z,100344.70
2023-01-28T13:21:32.430Z,100345.93
2023-01-28T13:24:01.089Z,100348.71
2023-01-28T13:26:29.162Z,100347.05
2023-01-28T13:29:07.986Z,100348.48
2023-01-28T13:31:39.529Z,100348.20
2023-01-28T13:34:06.645Z,100349.48
2023-01-28T13:36:39.582Z,100354.57
2023-01-28T13:39:17.657Z,100354.59
2023-01-28T13:41:49.592Z,100348.91
2023-01-28T13:44:24.926Z,100348.41
2023-01-28T13:47:12.202Z,100352.77
2023-01-28T13:49:39.695Z,100346.88
2023-01-28T13:52:14.772Z,100344.33
2023-01-28T13:54:44.488Z,100345.92
2023-01-28T13:57:24.193Z,100347.39
2023-01-28T14:00:02.408Z,100352.84
2023-01-28T14:03:07.885Z,100354.49
2023-01-28T14:05:38.791Z,100354.45
2023-01-28T14:08:33.043Z,100349.86
2023-01-28T14:11:10.786Z,100349.30
2023-01-28T18:31:07.487Z,100417.63
2023-01-28T18:33:34.094Z,100419.52
2023-01-28T18:36:18.068Z,100419.52
2023-01-28T18:38:45.500Z,100420.89
2023-01-28T18:41:11.937Z,100427.06
2023-01-28T18:43:38.512Z,100427.58
2023-01-28T18:46:16.342Z,100430.85
2023-01-28T18:48:42.964Z,100433.61
2023-01-28T18:51:27.641Z,100429.48
2023-01-28T18:54:00.329Z,100429.14
2023-01-28T18:56:27.676Z,100426.73
2023-01-28T18:59:02.366Z,100429.31
2023-01-28T19:01:32.739Z,100425.71
2023-01-28T19:03:59.926Z,100427.27
2023-01-28T19:06:27.631Z,100425.71
2023-01-28T19:08:56.135Z,100428.77
2023-01-28T21:17:21.637Z,100425.89
2023-01-28T21:19:50.165Z,100430.00
2023-01-28T21:22:18.014Z,100430.88
2023-01-28T21:24:49.193Z,100427.44
2023-01-28T21:27:17.304Z,100424.34
2023-01-28T21:29:45.302Z,100423.30
2023-01-28T21:32:15.863Z,100428.11
2023-01-28T21:34:43.714Z,100433.10
2023-01-28T21:37:11.672Z,100432.77
2023-01-28T21:39:39.551Z,100436.90
2023-01-28T21:42:07.528Z,100438.98
2023-01-28T21:44:35.611Z,100443.48
2023-01-28T21:47:03.398Z,100442.98
2023-01-28T21:49:31.674Z,100446.63
2023-01-28T21:51:59.829Z,100442.48
2023-01-28T21:54:27.712Z,100437.54
2023-01-28T21:56:58.235Z,100442.20
2023-01-28T21:59:30.016Z,100445.67
2023-01-28T22:16:16.461Z,100441.89
2023-01-28T22:18:46.847Z,100439.86
2023-01-28T22:21:14.987Z,100439.52
2023-01-28T22:23:42.804Z,100431.99
2023-01-28T22:26:11.082Z,100429.29
2023-01-28T22:28:39.415Z,100431.86
2023-01-28T22:31:11.609Z,100425.53
2023-01-28T22:33:39.856Z,100422.78
2023-01-28T22:36:09.480Z,100426.56
2023-01-28T22:38:39.260Z,100428.64
2023-01-28T22:41:07.645Z,100430.66
2023-01-28T22:43:35.596Z,100431.52
2023-01-28T22:46:04.035Z,100430.66
2023-01-28T22:48:32.143Z,100426.70
2023-01-28T22:51:03.073Z,100424.12
2023-01-28T22:53:31.316Z,100427.18
2023-01-28T22:55:59.148Z,100428.89
2023-01-28T22:58:31.651Z,100425.28
2023-01-28T23:00:59.881Z,100420.30
2023-01-28T23:03:27.816Z,100423.22
2023-01-28T23:05:59.460Z,100418.92
2023-01-28T23:08:27.818Z,100412.73
2023-01-28T23:10:57.562Z,100412.73
2023-01-28T23:13:25.797Z,100411.36
2023-01-28T23:16:12.073Z,100412.04
2023-01-28T23:18:58.699Z,100409.64
2023-01-28T23:21:46.186Z,100404.33
2023-01-28T23:24:24.727Z,100405.52
2023-01-28T23:26:53.918Z,100402.10
2023-01-28T23:29:24.250Z,100399.68
2023-01-28T23:31:54.287Z,100397.94
2023-01-28T23:34:22.135Z,100397.40
2023-01-28T23:36:52.205Z,100396.20
2023-01-28T23:39:20.079Z,100399.62
2023-01-28T23:41:47.897Z,100402.52
2023-01-28T23:44:18.269Z,100402.70
2023-01-28T23:46:46.264Z,100397.21
2023-01-28T23:49:14.120Z,100395.84
2023-01-28T23:51:42.400Z,100395.66
2023-01-28T23:54:10.184Z,100395.30
2023-01-28T23:56:39.271Z,100398.73
2023-01-28T23:59:07.252Z,100394.09
